Arklow Muse — EINV3 — position and weather

sailwx.info

Track history (hours):
 
Tides and Currents Weather Stations Pressure Air Temp Water Temp Dewpoint Dewpoint Depression Visibility Wind Speed Wind Dir Waves Ship Positions

Arklow Muse

Last reported at 2017-Nov-19 16:49 UTC. Time now 2017-Nov-21 15:51 UTC.
Position N 58°29' W 005°24'.

Length 136 m; draft 5.3 m.

Type: Cargo ship. MMSI: 250002821.

Date/timePositionNaut miles runAvg speedWind from/ knotsBaromVisibWave heightAir tempDewpointWater temp
2017-Nov-19 16:49N 58°29' W 005°24'4112.5
2017-Nov-19 13:33N 58°42' W 004°10'114.7
2017-Nov-19 13:30N 58°42' W 004°08'713.0
2017-Nov-19 13:00N 58°43' W 003°56'611.6
2017-Nov-19 12:30N 58°43' W 003°45'611.5
2017-Nov-19 12:00N 58°44' W 003°34'510.8
2017-Nov-19 11:30N 58°43' W 003°23'510.0
2017-Nov-19 11:00N 58°43' W 003°14'5 9.5
2017-Nov-19 10:30N 58°43' W 003°05'4 8.2
2017-Nov-19 10:00N 58°40' W 002°58'4 7.6
2017-Nov-19 09:30N 58°37' W 002°53'4 8.5
2017-Nov-19 09:00N 58°34' W 002°48'5110.3
2017-Nov-19 04:00N 57°53' W 001°50'4 8.5
2017-Nov-19 03:30N 57°49' W 001°46'6 8.0
2017-Nov-19 02:46N 57°44' W 001°40'2 7.4
2017-Nov-19 02:30N 57°42' W 001°39'3 6.8
2017-Nov-19 02:00N 57°39' W 001°37'3 6.7
2017-Nov-19 01:30N 57°36' W 001°35'4 6.1
2017-Nov-19 00:55N 57°32' W 001°33'17 6.3
2017-Nov-18 22:10N 57°15' W 001°36'2 9.6
2017-Nov-18 22:00N 57°14' W 001°37'5 9.9
2017-Nov-18 21:30N 57°09' W 001°40'710.9
2017-Nov-18 20:51N 57°02' W 001°44'411.6
2017-Nov-18 20:30N 56°58' W 001°46'2912.7
2017-Nov-18 18:15N 56°31' W 002°03'313.2
2017-Nov-18 18:00N 56°28' W 002°05'713.0
2017-Nov-18 17:27N 56°22' W 002°10'612.9
2017-Nov-18 17:00N 56°17' W 002°17'612.9
2017-Nov-18 16:30N 56°12' W 002°24'612.6
2017-Nov-18 16:00N 56°08' W 002°32'713.5
2017-Nov-18 15:30N 56°06' W 002°44'713.5
2017-Nov-18 15:00N 56°04' W 002°55'612.3
2017-Nov-18 14:30N 56°02' W 003°05'4 7.7
2017-Nov-18 14:00N 55°59' W 003°11'0 0.4
2017-Nov-18 13:28N 55°59' W 003°11'0 1.0
2017-Nov-18 12:58N 55°59' W 003°10'0 0.0
2017-Nov-18 12:28N 55°59' W 003°10'0 0.0
2017-Nov-18 11:58N 55°59' W 003°10'0 0.0
2017-Nov-18 11:28N 55°59' W 003°10'0 0.0
2017-Nov-18 10:58N 55°59' W 003°10'0 0.0
2017-Nov-18 10:28N 55°59' W 003°10'0 0.0
2017-Nov-18 09:58N 55°59' W 003°10'0 0.0
2017-Nov-18 09:28N 55°59' W 003°10'0 0.0
2017-Nov-18 08:58N 55°59' W 003°10'0 0.0
2017-Nov-18 08:28N 55°59' W 003°10'0 0.0
2017-Nov-18 07:58N 55°59' W 003°10'0 0.0
2017-Nov-18 07:28N 55°59' W 003°10'0 0.0
2017-Nov-18 06:58N 55°59' W 003°10'0 0.0
2017-Nov-18 06:28N 55°59' W 003°10'0 0.0
2017-Nov-18 05:58N 55°59' W 003°10'0 0.0
2017-Nov-18 05:28N 55°59' W 003°10'0 0.0
2017-Nov-18 04:58N 55°59' W 003°10'0 0.0
2017-Nov-18 04:28N 55°59' W 003°10'0 0.0
2017-Nov-18 03:58N 55°59' W 003°10'0 0.0
2017-Nov-18 03:28N 55°59' W 003°10'0 0.0
2017-Nov-18 02:58N 55°59' W 003°10'0 0.0
2017-Nov-18 02:28N 55°59' W 003°10'0 0.0
2017-Nov-18 01:58N 55°59' W 003°10'0 0.0
2017-Nov-18 01:28N 55°59' W 003°10'0 0.0
2017-Nov-18 00:58N 55°59' W 003°10'0 0.0
2017-Nov-18 00:28N 55°59' W 003°10'0 0.0
2017-Nov-17 23:58N 55°59' W 003°10'0 0.0
2017-Nov-17 23:28N 55°59' W 003°10'0 0.0
2017-Nov-17 22:58N 55°59' W 003°10'0 0.0
2017-Nov-17 22:28N 55°59' W 003°10'0 0.0
2017-Nov-17 21:58N 55°59' W 003°10'0 0.0
2017-Nov-17 21:28N 55°59' W 003°10'0 0.0
2017-Nov-17 20:58N 55°59' W 003°10'0 0.0
2017-Nov-17 20:28N 55°59' W 003°10'0 0.0
2017-Nov-17 19:58N 55°59' W 003°10'0 0.0
2017-Nov-17 19:28N 55°59' W 003°10'0 0.0
2017-Nov-17 18:58N 55°59' W 003°10'0 0.0
2017-Nov-17 18:28N 55°59' W 003°10'0 0.0
2017-Nov-17 17:58N 55°59' W 003°10'0 0.0
2017-Nov-17 17:28N 55°59' W 003°10'0 0.0
2017-Nov-17 16:58N 55°59' W 003°10'0 0.0
2017-Nov-17 16:28N 55°59' W 003°10'0 0.0
2017-Nov-17 15:58N 55°59' W 003°10'0 0.0
2017-Nov-17 15:28N 55°59' W 003°10'0 0.0
2017-Nov-17 14:58N 55°59' W 003°10'0 0.0
2017-Nov-17 14:28N 55°59' W 003°10'0 0.0
2017-Nov-17 13:58N 55°59' W 003°10'0 0.0
2017-Nov-17 13:28N 55°59' W 003°10'0 0.0
2017-Nov-17 12:58N 55°59' W 003°10'0 0.0
2017-Nov-17 12:28N 55°59' W 003°10'0 0.0
2017-Nov-17 11:58N 55°59' W 003°10'0 0.0
2017-Nov-17 11:28N 55°59' W 003°10'0 0.0
2017-Nov-17 10:58N 55°59' W 003°10'0 0.0
2017-Nov-17 10:28N 55°59' W 003°10'0 0.0
2017-Nov-17 09:58N 55°59' W 003°10'0 0.0
2017-Nov-17 09:28N 55°59' W 003°10'0 0.0
2017-Nov-17 08:58N 55°59' W 003°10'0 0.0
2017-Nov-17 08:28N 55°59' W 003°10'0 0.0
2017-Nov-17 07:58N 55°59' W 003°10'0 0.0
2017-Nov-17 07:28N 55°59' W 003°10'0 0.0
2017-Nov-17 06:58N 55°59' W 003°10'0 0.0
2017-Nov-17 06:28N 55°59' W 003°10'0 0.0
2017-Nov-17 05:58N 55°59' W 003°10'0 0.0
2017-Nov-17 05:28N 55°59' W 003°10'0 0.0
2017-Nov-17 04:58N 55°59' W 003°10'0 0.0
2017-Nov-17 04:28N 55°59' W 003°10'0 0.0
2017-Nov-17 03:58N 55°59' W 003°10'0 0.0
2017-Nov-17 03:28N 55°59' W 003°10'0 0.0
2017-Nov-17 02:58N 55°59' W 003°10'0 0.0
2017-Nov-17 02:28N 55°59' W 003°10'0 0.0
2017-Nov-17 01:58N 55°59' W 003°10'0 0.0
2017-Nov-17 01:28N 55°59' W 003°10'0 0.0
2017-Nov-17 00:58N 55°59' W 003°10'0 0.0
2017-Nov-17 00:28N 55°59' W 003°10'0 0.0
2017-Nov-16 23:58N 55°59' W 003°10'0 0.0
2017-Nov-16 23:28N 55°59' W 003°10'0 0.0
2017-Nov-16 22:58N 55°59' W 003°10'0 0.0
2017-Nov-16 22:28N 55°59' W 003°10'0 0.0
2017-Nov-16 21:58N 55°59' W 003°10'0 0.0
2017-Nov-16 21:28N 55°59' W 003°10'0 0.0
2017-Nov-16 20:58N 55°59' W 003°10'0 0.0
2017-Nov-16 20:28N 55°59' W 003°10'0 0.0
2017-Nov-16 19:58N 55°59' W 003°10'0 0.0
2017-Nov-16 19:28N 55°59' W 003°10'0 0.0
2017-Nov-16 18:58N 55°59' W 003°10'0 0.0
2017-Nov-16 18:28N 55°59' W 003°10'0 0.0
2017-Nov-16 17:58N 55°59' W 003°10'0 0.0
2017-Nov-16 17:28N 55°59' W 003°10'0 0.0
2017-Nov-16 16:58N 55°59' W 003°10'0 0.0
2017-Nov-16 16:28N 55°59' W 003°10'0 0.0
2017-Nov-16 15:58N 55°59' W 003°10'0 0.0
2017-Nov-16 15:28N 55°59' W 003°10'0 0.0
2017-Nov-16 14:58N 55°59' W 003°10'0 0.0
2017-Nov-16 14:28N 55°59' W 003°10'0 0.0
2017-Nov-16 13:58N 55°59' W 003°10'0 0.0
2017-Nov-16 13:28N 55°59' W 003°10'0 0.0
2017-Nov-16 12:58N 55°59' W 003°10'0 0.0
2017-Nov-16 12:28N 55°59' W 003°10'0 0.0
2017-Nov-16 11:58N 55°59' W 003°10'0 0.0
2017-Nov-16 11:28N 55°59' W 003°10'0 0.0
2017-Nov-16 10:58N 55°59' W 003°10'0 0.0
2017-Nov-16 10:28N 55°59' W 003°10'0 0.0
2017-Nov-16 09:58N 55°59' W 003°10'0 0.0
2017-Nov-16 09:28N 55°59' W 003°10'0 0.0
2017-Nov-16 08:58N 55°59' W 003°10'0 0.0
2017-Nov-16 08:28N 55°59' W 003°10'0 0.0
2017-Nov-16 07:58N 55°59' W 003°10'0 0.0
2017-Nov-16 07:28N 55°59' W 003°10'0 0.0
2017-Nov-16 06:58N 55°59' W 003°10'0 0.0
2017-Nov-16 06:28N 55°59' W 003°10'0 0.0
2017-Nov-16 05:58N 55°59' W 003°10'0 0.0
2017-Nov-16 05:28N 55°59' W 003°10'0 0.0
2017-Nov-16 04:58N 55°59' W 003°10'0 0.0
2017-Nov-16 04:28N 55°59' W 003°10'0 0.0
2017-Nov-16 03:58N 55°59' W 003°10'0 0.0
2017-Nov-16 03:28N 55°59' W 003°10'0 0.0
2017-Nov-16 02:58N 55°59' W 003°10'0 0.0
2017-Nov-16 02:28N 55°59' W 003°10'0 0.0
2017-Nov-16 01:58N 55°59' W 003°10'0 0.0
2017-Nov-16 01:28N 55°59' W 003°10'0 0.0
2017-Nov-16 00:58N 55°59' W 003°10'0 0.0
2017-Nov-16 00:28N 55°59' W 003°10'0 0.0
2017-Nov-15 23:58N 55°59' W 003°10'0 0.0
2017-Nov-15 23:28N 55°59' W 003°10'0 0.0
2017-Nov-15 22:58N 55°59' W 003°10'0 0.0
2017-Nov-15 22:28N 55°59' W 003°10'0 0.0
2017-Nov-15 21:58N 55°59' W 003°10'0 0.0
2017-Nov-15 21:28N 55°59' W 003°10'0 0.0
2017-Nov-15 20:58N 55°59' W 003°10'0 0.0
2017-Nov-15 20:28N 55°59' W 003°10'0 0.0
2017-Nov-15 19:58N 55°59' W 003°10'0 0.0
2017-Nov-15 19:28N 55°59' W 003°10'0 0.0
2017-Nov-15 18:58N 55°59' W 003°10'0 0.0
2017-Nov-15 18:28N 55°59' W 003°10'0 0.0
2017-Nov-15 17:58N 55°59' W 003°10'0 0.0
2017-Nov-15 17:28N 55°59' W 003°10'0 0.0
2017-Nov-15 16:58N 55°59' W 003°10'0 0.0
2017-Nov-15 16:28N 55°59' W 003°10'0 0.0
2017-Nov-15 15:58N 55°59' W 003°10'0 0.0
2017-Nov-15 15:28N 55°59' W 003°10'0 0.0
2017-Nov-15 14:58N 55°59' W 003°10'0 0.0
2017-Nov-15 14:28N 55°59' W 003°10'0 0.0
2017-Nov-15 13:58N 55°59' W 003°10'0 0.0
2017-Nov-15 13:28N 55°59' W 003°10'0 0.0
2017-Nov-15 12:58N 55°59' W 003°10'0 0.0
2017-Nov-15 12:28N 55°59' W 003°10'0 0.0
2017-Nov-15 11:58N 55°59' W 003°10'0 0.0
2017-Nov-15 11:28N 55°59' W 003°10'0 0.0
2017-Nov-15 10:58N 55°59' W 003°10'0 0.0
2017-Nov-15 10:28N 55°59' W 003°10'0 0.0
2017-Nov-15 09:58N 55°59' W 003°10'0 0.0
2017-Nov-15 09:28N 55°59' W 003°10'0 0.0
2017-Nov-15 08:58N 55°59' W 003°10'0 0.0
2017-Nov-15 08:28N 55°59' W 003°10'0 0.0
2017-Nov-15 07:58N 55°59' W 003°10'0 0.0
2017-Nov-15 07:28N 55°59' W 003°10'0 0.0
2017-Nov-15 06:58N 55°59' W 003°10'0 0.0
2017-Nov-15 06:28N 55°59' W 003°10'0 0.0
2017-Nov-15 05:58N 55°59' W 003°10'0 0.0
2017-Nov-15 05:28N 55°59' W 003°10'0 0.0
2017-Nov-15 04:58N 55°59' W 003°10'0 0.0
2017-Nov-15 04:28N 55°59' W 003°10'0 0.0
2017-Nov-15 03:58N 55°59' W 003°10'0 0.0
2017-Nov-15 03:28N 55°59' W 003°10'0 0.0
2017-Nov-15 02:58N 55°59' W 003°10'0 0.0
2017-Nov-15 02:28N 55°59' W 003°10'0 0.0
2017-Nov-15 01:58N 55°59' W 003°10'0 0.0
2017-Nov-15 01:28N 55°59' W 003°10'0 0.0
2017-Nov-15 00:58N 55°59' W 003°10'0 0.0
2017-Nov-15 00:28N 55°59' W 003°10'0 0.0
2017-Nov-14 23:58N 55°59' W 003°10'0 0.0
2017-Nov-14 23:28N 55°59' W 003°10'0 0.0
2017-Nov-14 22:58N 55°59' W 003°10'0 0.0
2017-Nov-14 22:28N 55°59' W 003°10'0 0.0
2017-Nov-14 21:58N 55°59' W 003°10'0 0.0
2017-Nov-14 21:28N 55°59' W 003°10'0 0.0
2017-Nov-14 20:58N 55°59' W 003°10'0 0.0
2017-Nov-14 20:28N 55°59' W 003°10'0 0.0
2017-Nov-14 19:58N 55°59' W 003°10'0 0.0
2017-Nov-14 19:28N 55°59' W 003°10'0 0.0
2017-Nov-14 18:58N 55°59' W 003°10'0 0.0
2017-Nov-14 18:28N 55°59' W 003°10'0 0.0
2017-Nov-14 17:58N 55°59' W 003°10'0 0.0
2017-Nov-14 17:28N 55°59' W 003°10'0 0.0
2017-Nov-14 16:58N 55°59' W 003°10'0 0.0
2017-Nov-14 16:28N 55°59' W 003°10'0 0.0
2017-Nov-14 15:58N 55°59' W 003°10'0 0.0
2017-Nov-14 15:28N 55°59' W 003°10'0 0.0
2017-Nov-14 14:58N 55°59' W 003°10'0 0.0
2017-Nov-14 14:28N 55°59' W 003°10'0 0.0
2017-Nov-14 13:58N 55°59' W 003°10'0 0.0
2017-Nov-14 13:28N 55°59' W 003°10'0 0.0
2017-Nov-14 12:58N 55°59' W 003°10'0 0.0
2017-Nov-14 12:28N 55°59' W 003°10'0 0.0
2017-Nov-14 12:00N 55°59' W 003°10'1 1.3
2017-Nov-14 11:30N 55°59' W 003°11'0 0.3
2017-Nov-14 11:00N 55°59' W 003°11'2 3.1
2017-Nov-14 10:30N 56°00' W 003°09'4 8.8
2017-Nov-14 10:00N 56°03' W 003°02'5 9.0
2017-Nov-14 09:30N 56°05' W 002°55'3 6.0
2017-Nov-14 09:00N 56°06' W 002°50'2 4.3
2017-Nov-14 08:30N 56°07' W 002°47'2 3.9
2017-Nov-14 08:00N 56°07' W 002°43'2 4.4
2017-Nov-14 07:30N 56°08' W 002°39'2 4.8
2017-Nov-14 07:00N 56°08' W 002°35'2 4.9
2017-Nov-14 06:30N 56°09' W 002°31'2 4.7
2017-Nov-14 06:00N 56°11' W 002°28'3 6.5
2017-Nov-14 05:30N 56°13' W 002°24'5 9.6
2017-Nov-14 05:00N 56°16' W 002°18'5 9.2
2017-Nov-14 04:30N 56°21' W 002°14'5 9.4
2017-Nov-14 04:00N 56°25' W 002°11'5 9.3
2017-Nov-14 03:30N 56°29' W 002°08'5 9.1
2017-Nov-14 03:00N 56°34' W 002°06'5 8.5
2017-Nov-14 02:28N 56°38' W 002°03'18 8.6
2017-Nov-14 00:20N 56°55' W 001°52'3 8.3
2017-Nov-14 00:00N 56°58' W 001°50'4 8.3
2017-Nov-13 23:30N 57°02' W 001°47'4 8.4
2017-Nov-13 23:00N 57°06' W 001°44'5 9.2
2017-Nov-13 22:30N 57°10' W 001°41'5 9.2
2017-Nov-13 22:00N 57°14' W 001°38'193 5.7
2017-Nov-12 12:07N 55°55' W 006°57'4 9.6
2017-Nov-12 11:43N 55°52' W 006°55'210.1
2017-Nov-12 11:31N 55°50' W 006°53'5 9.9
2017-Nov-12 11:00N 55°45' W 006°50'5 9.8
2017-Nov-12 10:31N 55°42' W 006°43'510.4
2017-Nov-12 10:00N 55°39' W 006°36'510.6
2017-Nov-12 09:30N 55°35' W 006°29'612.3
2017-Nov-12 09:01N 55°31' W 006°20'612.6
2017-Nov-12 08:31N 55°28' W 006°11'612.4
2017-Nov-12 08:00N 55°24' W 006°02'612.0
2017-Nov-12 07:31N 55°19' W 005°56'612.5
2017-Nov-12 07:01N 55°14' W 005°49'1912.0
2017-Nov-12 05:25N 54°59' W 005°30'511.2
2017-Nov-12 05:00N 54°55' W 005°26'611.1
2017-Nov-12 04:31N 54°50' W 005°22'510.9
2017-Nov-12 04:01N 54°44' W 005°20'611.1
2017-Nov-12 03:31N 54°39' W 005°17'611.7
2017-Nov-12 03:01N 54°33' W 005°14'612.1
2017-Nov-12 02:31N 54°28' W 005°11'612.2
2017-Nov-12 02:00N 54°22' W 005°08'713.1
2017-Nov-12 01:30N 54°15' W 005°10'28512.2
2017-Nov-11 02:02N 49°36' W 006°50'311.0
2017-Nov-11 01:43N 49°33' W 006°51'1510.9
2017-Nov-11 00:21N 49°19' W 006°58'511.3
2017-Nov-10 23:56N 49°14' W 007°00'3212.1
2017-Nov-10 21:15N 48°43' W 007°15'1212.5
2017-Nov-10 20:16N 48°32' W 007°20'1712.8
2017-Nov-10 18:55N 48°15' W 007°29'1912.4
2017-Nov-10 17:22N 47°57' W 007°38'  
Track history (hours):
 
Tides and Currents Weather Stations Pressure Air Temp Water Temp Dewpoint Dewpoint Depression Visibility Wind Speed Wind Dir Waves Ship Positions

Arklow Muse

Last reported at 2017-Nov-19 16:49 UTC. Time now 2017-Nov-21 15:51 UTC.
Position N 58°29' W 005°24'.

Length 136 m; draft 5.3 m.

Type: Cargo ship. MMSI: 250002821.

Date/timePositionNaut miles runAvg speedWind from/ knotsBaromVisibWave heightAir tempDewpointWater temp
2017-Nov-19 16:49N 58°29' W 005°24'4112.5
2017-Nov-19 13:33N 58°42' W 004°10'114.7
2017-Nov-19 13:30N 58°42' W 004°08'713.0
2017-Nov-19 13:00N 58°43' W 003°56'611.6
2017-Nov-19 12:30N 58°43' W 003°45'611.5
2017-Nov-19 12:00N 58°44' W 003°34'510.8
2017-Nov-19 11:30N 58°43' W 003°23'510.0
2017-Nov-19 11:00N 58°43' W 003°14'5 9.5
2017-Nov-19 10:30N 58°43' W 003°05'4 8.2
2017-Nov-19 10:00N 58°40' W 002°58'4 7.6
2017-Nov-19 09:30N 58°37' W 002°53'4 8.5
2017-Nov-19 09:00N 58°34' W 002°48'5110.3
2017-Nov-19 04:00N 57°53' W 001°50'4 8.5
2017-Nov-19 03:30N 57°49' W 001°46'6 8.0
2017-Nov-19 02:46N 57°44' W 001°40'2 7.4
2017-Nov-19 02:30N 57°42' W 001°39'3 6.8
2017-Nov-19 02:00N 57°39' W 001°37'3 6.7
2017-Nov-19 01:30N 57°36' W 001°35'4 6.1
2017-Nov-19 00:55N 57°32' W 001°33'17 6.3
2017-Nov-18 22:10N 57°15' W 001°36'2 9.6
2017-Nov-18 22:00N 57°14' W 001°37'5 9.9
2017-Nov-18 21:30N 57°09' W 001°40'710.9
2017-Nov-18 20:51N 57°02' W 001°44'411.6
2017-Nov-18 20:30N 56°58' W 001°46'2912.7
2017-Nov-18 18:15N 56°31' W 002°03'313.2
2017-Nov-18 18:00N 56°28' W 002°05'713.0
2017-Nov-18 17:27N 56°22' W 002°10'612.9
2017-Nov-18 17:00N 56°17' W 002°17'612.9
2017-Nov-18 16:30N 56°12' W 002°24'612.6
2017-Nov-18 16:00N 56°08' W 002°32'713.5
2017-Nov-18 15:30N 56°06' W 002°44'713.5
2017-Nov-18 15:00N 56°04' W 002°55'612.3
2017-Nov-18 14:30N 56°02' W 003°05'4 7.7
2017-Nov-18 14:00N 55°59' W 003°11'0 0.4
2017-Nov-18 13:28N 55°59' W 003°11'0 1.0
2017-Nov-18 12:58N 55°59' W 003°10'0 0.0
2017-Nov-18 12:28N 55°59' W 003°10'0 0.0
2017-Nov-18 11:58N 55°59' W 003°10'0 0.0
2017-Nov-18 11:28N 55°59' W 003°10'0 0.0
2017-Nov-18 10:58N 55°59' W 003°10'0 0.0
2017-Nov-18 10:28N 55°59' W 003°10'0 0.0
2017-Nov-18 09:58N 55°59' W 003°10'0 0.0
2017-Nov-18 09:28N 55°59' W 003°10'0 0.0
2017-Nov-18 08:58N 55°59' W 003°10'0 0.0
2017-Nov-18 08:28N 55°59' W 003°10'0 0.0
2017-Nov-18 07:58N 55°59' W 003°10'0 0.0
2017-Nov-18 07:28N 55°59' W 003°10'0 0.0
2017-Nov-18 06:58N 55°59' W 003°10'0 0.0
2017-Nov-18 06:28N 55°59' W 003°10'0 0.0
2017-Nov-18 05:58N 55°59' W 003°10'0 0.0
2017-Nov-18 05:28N 55°59' W 003°10'0 0.0
2017-Nov-18 04:58N 55°59' W 003°10'0 0.0
2017-Nov-18 04:28N 55°59' W 003°10'0 0.0
2017-Nov-18 03:58N 55°59' W 003°10'0 0.0
2017-Nov-18 03:28N 55°59' W 003°10'0 0.0
2017-Nov-18 02:58N 55°59' W 003°10'0 0.0
2017-Nov-18 02:28N 55°59' W 003°10'0 0.0
2017-Nov-18 01:58N 55°59' W 003°10'0 0.0
2017-Nov-18 01:28N 55°59' W 003°10'0 0.0
2017-Nov-18 00:58N 55°59' W 003°10'0 0.0
2017-Nov-18 00:28N 55°59' W 003°10'0 0.0
2017-Nov-17 23:58N 55°59' W 003°10'0 0.0
2017-Nov-17 23:28N 55°59' W 003°10'0 0.0
2017-Nov-17 22:58N 55°59' W 003°10'0 0.0
2017-Nov-17 22:28N 55°59' W 003°10'0 0.0
2017-Nov-17 21:58N 55°59' W 003°10'0 0.0
2017-Nov-17 21:28N 55°59' W 003°10'0 0.0
2017-Nov-17 20:58N 55°59' W 003°10'0 0.0
2017-Nov-17 20:28N 55°59' W 003°10'0 0.0
2017-Nov-17 19:58N 55°59' W 003°10'0 0.0
2017-Nov-17 19:28N 55°59' W 003°10'0 0.0
2017-Nov-17 18:58N 55°59' W 003°10'0 0.0
2017-Nov-17 18:28N 55°59' W 003°10'0 0.0
2017-Nov-17 17:58N 55°59' W 003°10'0 0.0
2017-Nov-17 17:28N 55°59' W 003°10'0 0.0
2017-Nov-17 16:58N 55°59' W 003°10'0 0.0
2017-Nov-17 16:28N 55°59' W 003°10'0 0.0
2017-Nov-17 15:58N 55°59' W 003°10'0 0.0
2017-Nov-17 15:28N 55°59' W 003°10'0 0.0
2017-Nov-17 14:58N 55°59' W 003°10'0 0.0
2017-Nov-17 14:28N 55°59' W 003°10'0 0.0
2017-Nov-17 13:58N 55°59' W 003°10'0 0.0
2017-Nov-17 13:28N 55°59' W 003°10'0 0.0
2017-Nov-17 12:58N 55°59' W 003°10'0 0.0
2017-Nov-17 12:28N 55°59' W 003°10'0 0.0
2017-Nov-17 11:58N 55°59' W 003°10'0 0.0
2017-Nov-17 11:28N 55°59' W 003°10'0 0.0
2017-Nov-17 10:58N 55°59' W 003°10'0 0.0
2017-Nov-17 10:28N 55°59' W 003°10'0 0.0
2017-Nov-17 09:58N 55°59' W 003°10'0 0.0
2017-Nov-17 09:28N 55°59' W 003°10'0 0.0
2017-Nov-17 08:58N 55°59' W 003°10'0 0.0
2017-Nov-17 08:28N 55°59' W 003°10'0 0.0
2017-Nov-17 07:58N 55°59' W 003°10'0 0.0
2017-Nov-17 07:28N 55°59' W 003°10'0 0.0
2017-Nov-17 06:58N 55°59' W 003°10'0 0.0
2017-Nov-17 06:28N 55°59' W 003°10'0 0.0
2017-Nov-17 05:58N 55°59' W 003°10'0 0.0
2017-Nov-17 05:28N 55°59' W 003°10'0 0.0
2017-Nov-17 04:58N 55°59' W 003°10'0 0.0
2017-Nov-17 04:28N 55°59' W 003°10'0 0.0
2017-Nov-17 03:58N 55°59' W 003°10'0 0.0
2017-Nov-17 03:28N 55°59' W 003°10'0 0.0
2017-Nov-17 02:58N 55°59' W 003°10'0 0.0
2017-Nov-17 02:28N 55°59' W 003°10'0 0.0
2017-Nov-17 01:58N 55°59' W 003°10'0 0.0
2017-Nov-17 01:28N 55°59' W 003°10'0 0.0
2017-Nov-17 00:58N 55°59' W 003°10'0 0.0
2017-Nov-17 00:28N 55°59' W 003°10'0 0.0
2017-Nov-16 23:58N 55°59' W 003°10'0 0.0
2017-Nov-16 23:28N 55°59' W 003°10'0 0.0
2017-Nov-16 22:58N 55°59' W 003°10'0 0.0
2017-Nov-16 22:28N 55°59' W 003°10'0 0.0
2017-Nov-16 21:58N 55°59' W 003°10'0 0.0
2017-Nov-16 21:28N 55°59' W 003°10'0 0.0
2017-Nov-16 20:58N 55°59' W 003°10'0 0.0
2017-Nov-16 20:28N 55°59' W 003°10'0 0.0
2017-Nov-16 19:58N 55°59' W 003°10'0 0.0
2017-Nov-16 19:28N 55°59' W 003°10'0 0.0
2017-Nov-16 18:58N 55°59' W 003°10'0 0.0
2017-Nov-16 18:28N 55°59' W 003°10'0 0.0
2017-Nov-16 17:58N 55°59' W 003°10'0 0.0
2017-Nov-16 17:28N 55°59' W 003°10'0 0.0
2017-Nov-16 16:58N 55°59' W 003°10'0 0.0
2017-Nov-16 16:28N 55°59' W 003°10'0 0.0
2017-Nov-16 15:58N 55°59' W 003°10'0 0.0
2017-Nov-16 15:28N 55°59' W 003°10'0 0.0
2017-Nov-16 14:58N 55°59' W 003°10'0 0.0
2017-Nov-16 14:28N 55°59' W 003°10'0 0.0
2017-Nov-16 13:58N 55°59' W 003°10'0 0.0
2017-Nov-16 13:28N 55°59' W 003°10'0 0.0
2017-Nov-16 12:58N 55°59' W 003°10'0 0.0
2017-Nov-16 12:28N 55°59' W 003°10'0 0.0
2017-Nov-16 11:58N 55°59' W 003°10'0 0.0
2017-Nov-16 11:28N 55°59' W 003°10'0 0.0
2017-Nov-16 10:58N 55°59' W 003°10'0 0.0
2017-Nov-16 10:28N 55°59' W 003°10'0 0.0
2017-Nov-16 09:58N 55°59' W 003°10'0 0.0
2017-Nov-16 09:28N 55°59' W 003°10'0 0.0
2017-Nov-16 08:58N 55°59' W 003°10'0 0.0
2017-Nov-16 08:28N 55°59' W 003°10'0 0.0
2017-Nov-16 07:58N 55°59' W 003°10'0 0.0
2017-Nov-16 07:28N 55°59' W 003°10'0 0.0
2017-Nov-16 06:58N 55°59' W 003°10'0 0.0
2017-Nov-16 06:28N 55°59' W 003°10'0 0.0
2017-Nov-16 05:58N 55°59' W 003°10'0 0.0
2017-Nov-16 05:28N 55°59' W 003°10'0 0.0
2017-Nov-16 04:58N 55°59' W 003°10'0 0.0
2017-Nov-16 04:28N 55°59' W 003°10'0 0.0
2017-Nov-16 03:58N 55°59' W 003°10'0 0.0
2017-Nov-16 03:28N 55°59' W 003°10'0 0.0
2017-Nov-16 02:58N 55°59' W 003°10'0 0.0
2017-Nov-16 02:28N 55°59' W 003°10'0 0.0
2017-Nov-16 01:58N 55°59' W 003°10'0 0.0
2017-Nov-16 01:28N 55°59' W 003°10'0 0.0
2017-Nov-16 00:58N 55°59' W 003°10'0 0.0
2017-Nov-16 00:28N 55°59' W 003°10'0 0.0
2017-Nov-15 23:58N 55°59' W 003°10'0 0.0
2017-Nov-15 23:28N 55°59' W 003°10'0 0.0
2017-Nov-15 22:58N 55°59' W 003°10'0 0.0
2017-Nov-15 22:28N 55°59' W 003°10'0 0.0
2017-Nov-15 21:58N 55°59' W 003°10'0 0.0
2017-Nov-15 21:28N 55°59' W 003°10'0 0.0
2017-Nov-15 20:58N 55°59' W 003°10'0 0.0
2017-Nov-15 20:28N 55°59' W 003°10'0 0.0
2017-Nov-15 19:58N 55°59' W 003°10'0 0.0
2017-Nov-15 19:28N 55°59' W 003°10'0 0.0
2017-Nov-15 18:58N 55°59' W 003°10'0 0.0
2017-Nov-15 18:28N 55°59' W 003°10'0 0.0
2017-Nov-15 17:58N 55°59' W 003°10'0 0.0
2017-Nov-15 17:28N 55°59' W 003°10'0 0.0
2017-Nov-15 16:58N 55°59' W 003°10'0 0.0
2017-Nov-15 16:28N 55°59' W 003°10'0 0.0
2017-Nov-15 15:58N 55°59' W 003°10'0 0.0
2017-Nov-15 15:28N 55°59' W 003°10'0 0.0
2017-Nov-15 14:58N 55°59' W 003°10'0 0.0
2017-Nov-15 14:28N 55°59' W 003°10'0 0.0
2017-Nov-15 13:58N 55°59' W 003°10'0 0.0
2017-Nov-15 13:28N 55°59' W 003°10'0 0.0
2017-Nov-15 12:58N 55°59' W 003°10'0 0.0
2017-Nov-15 12:28N 55°59' W 003°10'0 0.0
2017-Nov-15 11:58N 55°59' W 003°10'0 0.0
2017-Nov-15 11:28N 55°59' W 003°10'0 0.0
2017-Nov-15 10:58N 55°59' W 003°10'0 0.0
2017-Nov-15 10:28N 55°59' W 003°10'0 0.0
2017-Nov-15 09:58N 55°59' W 003°10'0 0.0
2017-Nov-15 09:28N 55°59' W 003°10'0 0.0
2017-Nov-15 08:58N 55°59' W 003°10'0 0.0
2017-Nov-15 08:28N 55°59' W 003°10'0 0.0
2017-Nov-15 07:58N 55°59' W 003°10'0 0.0
2017-Nov-15 07:28N 55°59' W 003°10'0 0.0
2017-Nov-15 06:58N 55°59' W 003°10'0 0.0
2017-Nov-15 06:28N 55°59' W 003°10'0 0.0
2017-Nov-15 05:58N 55°59' W 003°10'0 0.0
2017-Nov-15 05:28N 55°59' W 003°10'0 0.0
2017-Nov-15 04:58N 55°59' W 003°10'0 0.0
2017-Nov-15 04:28N 55°59' W 003°10'0 0.0
2017-Nov-15 03:58N 55°59' W 003°10'0 0.0
2017-Nov-15 03:28N 55°59' W 003°10'0 0.0
2017-Nov-15 02:58N 55°59' W 003°10'0 0.0
2017-Nov-15 02:28N 55°59' W 003°10'0 0.0
2017-Nov-15 01:58N 55°59' W 003°10'0 0.0
2017-Nov-15 01:28N 55°59' W 003°10'0 0.0
2017-Nov-15 00:58N 55°59' W 003°10'0 0.0
2017-Nov-15 00:28N 55°59' W 003°10'0 0.0
2017-Nov-14 23:58N 55°59' W 003°10'0 0.0
2017-Nov-14 23:28N 55°59' W 003°10'0 0.0
2017-Nov-14 22:58N 55°59' W 003°10'0 0.0
2017-Nov-14 22:28N 55°59' W 003°10'0 0.0
2017-Nov-14 21:58N 55°59' W 003°10'0 0.0
2017-Nov-14 21:28N 55°59' W 003°10'0 0.0
2017-Nov-14 20:58N 55°59' W 003°10'0 0.0
2017-Nov-14 20:28N 55°59' W 003°10'0 0.0
2017-Nov-14 19:58N 55°59' W 003°10'0 0.0
2017-Nov-14 19:28N 55°59' W 003°10'0 0.0
2017-Nov-14 18:58N 55°59' W 003°10'0 0.0
2017-Nov-14 18:28N 55°59' W 003°10'0 0.0
2017-Nov-14 17:58N 55°59' W 003°10'0 0.0
2017-Nov-14 17:28N 55°59' W 003°10'0 0.0
2017-Nov-14 16:58N 55°59' W 003°10'0 0.0
2017-Nov-14 16:28N 55°59' W 003°10'0 0.0
2017-Nov-14 15:58N 55°59' W 003°10'0 0.0
2017-Nov-14 15:28N 55°59' W 003°10'0 0.0
2017-Nov-14 14:58N 55°59' W 003°10'0 0.0
2017-Nov-14 14:28N 55°59' W 003°10'0 0.0
2017-Nov-14 13:58N 55°59' W 003°10'0 0.0
2017-Nov-14 13:28N 55°59' W 003°10'0 0.0
2017-Nov-14 12:58N 55°59' W 003°10'0 0.0
2017-Nov-14 12:28N 55°59' W 003°10'0 0.0
2017-Nov-14 12:00N 55°59' W 003°10'1 1.3
2017-Nov-14 11:30N 55°59' W 003°11'0 0.3
2017-Nov-14 11:00N 55°59' W 003°11'2 3.1
2017-Nov-14 10:30N 56°00' W 003°09'4 8.8
2017-Nov-14 10:00N 56°03' W 003°02'5 9.0
2017-Nov-14 09:30N 56°05' W 002°55'3 6.0
2017-Nov-14 09:00N 56°06' W 002°50'2 4.3
2017-Nov-14 08:30N 56°07' W 002°47'2 3.9
2017-Nov-14 08:00N 56°07' W 002°43'2 4.4
2017-Nov-14 07:30N 56°08' W 002°39'2 4.8
2017-Nov-14 07:00N 56°08' W 002°35'2 4.9
2017-Nov-14 06:30N 56°09' W 002°31'2 4.7
2017-Nov-14 06:00N 56°11' W 002°28'3 6.5
2017-Nov-14 05:30N 56°13' W 002°24'5 9.6
2017-Nov-14 05:00N 56°16' W 002°18'5 9.2
2017-Nov-14 04:30N 56°21' W 002°14'5 9.4
2017-Nov-14 04:00N 56°25' W 002°11'5 9.3
2017-Nov-14 03:30N 56°29' W 002°08'5 9.1
2017-Nov-14 03:00N 56°34' W 002°06'5 8.5
2017-Nov-14 02:28N 56°38' W 002°03'18 8.6
2017-Nov-14 00:20N 56°55' W 001°52'3 8.3
2017-Nov-14 00:00N 56°58' W 001°50'4 8.3
2017-Nov-13 23:30N 57°02' W 001°47'4 8.4
2017-Nov-13 23:00N 57°06' W 001°44'5 9.2
2017-Nov-13 22:30N 57°10' W 001°41'5 9.2
2017-Nov-13 22:00N 57°14' W 001°38'193 5.7
2017-Nov-12 12:07N 55°55' W 006°57'4 9.6
2017-Nov-12 11:43N 55°52' W 006°55'210.1
2017-Nov-12 11:31N 55°50' W 006°53'5 9.9
2017-Nov-12 11:00N 55°45' W 006°50'5 9.8
2017-Nov-12 10:31N 55°42' W 006°43'510.4
2017-Nov-12 10:00N 55°39' W 006°36'510.6
2017-Nov-12 09:30N 55°35' W 006°29'612.3
2017-Nov-12 09:01N 55°31' W 006°20'612.6
2017-Nov-12 08:31N 55°28' W 006°11'612.4
2017-Nov-12 08:00N 55°24' W 006°02'612.0
2017-Nov-12 07:31N 55°19' W 005°56'612.5
2017-Nov-12 07:01N 55°14' W 005°49'1912.0
2017-Nov-12 05:25N 54°59' W 005°30'511.2
2017-Nov-12 05:00N 54°55' W 005°26'611.1
2017-Nov-12 04:31N 54°50' W 005°22'510.9
2017-Nov-12 04:01N 54°44' W 005°20'611.1
2017-Nov-12 03:31N 54°39' W 005°17'611.7
2017-Nov-12 03:01N 54°33' W 005°14'612.1
2017-Nov-12 02:31N 54°28' W 005°11'612.2
2017-Nov-12 02:00N 54°22' W 005°08'713.1
2017-Nov-12 01:30N 54°15' W 005°10'28512.2
2017-Nov-11 02:02N 49°36' W 006°50'311.0
2017-Nov-11 01:43N 49°33' W 006°51'1510.9
2017-Nov-11 00:21N 49°19' W 006°58'511.3
2017-Nov-10 23:56N 49°14' W 007°00'3212.1
2017-Nov-10 21:15N 48°43' W 007°15'1212.5
2017-Nov-10 20:16N 48°32' W 007°20'1712.8
2017-Nov-10 18:55N 48°15' W 007°29'1912.4
2017-Nov-10 17:22N 47°57' W 007°38'  

Dump ship's entire track history